Terminal Aerodrome Forecast
Issued by NWS

Home | Current Version | Previous Version | Text Only | Print | Product List | Glossary On
Versions: 1 2 3 4 5 6 7 8 9 10 11 12 13 14 15
000
FTAK31 PAJN 032300
TAFAYA
TAF
PAYA 032337Z 0400/0424 34006KT P6SM SKC
     FM040300 32004KT P6SM SKC
     FM040800 VRB02KT 6SM BCFG FEW002
     FM041500 04006KT P6SM SKC
      AMD LTD TO CLD VIS AND WIND 0401/0410=

USA.gov is the U.S. government's official web portal to all federal, state and local government web resources and services.